CMA CGM La Boussole — A8FZ6 — position and weather

sailwx.info

Track history (hours):
 
Tides and Currents Weather Stations Pressure Air Temp Water Temp Dewpoint Dewpoint Depression Visibility Wind Speed Wind Dir Waves Ship Positions

CMA CGM La Boussole

Last reported at 2016-Sep-29 23:32 UTC. Time now 2016-Sep-30 11:48 UTC.
Position N 16°14' W 061°33'.

Length 210.1 m; beam 30.2 m; draft 11.5 m.

Type: Ship (hazmat cat A). MMSI: 636017045.

Date/timePositionNaut miles runAvg speedWind from/ knotsBaromVisibWave heightAir tempDewpointWater temp
2016-Sep-29 23:32N 16°14' W 061°33'0 0.0
2016-Sep-29 21:32N 16°14' W 061°33'0 0.0
2016-Sep-29 20:32N 16°14' W 061°33'0 0.0
2016-Sep-29 19:32N 16°14' W 061°33'0 0.0
2016-Sep-29 16:32N 16°14' W 061°33'0 0.0
2016-Sep-29 15:31N 16°14' W 061°33'0 0.0
2016-Sep-29 14:31N 16°14' W 061°33'0 0.0
2016-Sep-29 13:31N 16°14' W 061°33'6 1.2
2016-Sep-29 08:34N 16°08' W 061°30'8 7.4
2016-Sep-29 07:32N 16°08' W 061°22'  
2016-Sep-24 14:20N 09°46' W 079°00'3619.5
2016-Sep-24 12:30N 09°51' W 079°36'3920.2
2016-Sep-24 10:33N 09°53' W 080°16'  
2016-Sep-21 03:33N 09°38' W 080°06'1616.1
2016-Sep-21 02:34N 09°28' W 079°53'6 0.7
2016-Sep-20 17:32N 09°22' W 079°53'0 0.0
2016-Sep-20 14:31N 09°22' W 079°53'0 0.0
2016-Sep-20 13:31N 09°22' W 079°53'0 0.0
2016-Sep-20 10:31N 09°22' W 079°53'4 1.9
2016-Sep-20 08:33N 09°26' W 079°53'4 3.7
2016-Sep-20 07:26N 09°28' W 079°50'0 0.1
2016-Sep-20 06:32N 09°28' W 079°50'0 0.0
2016-Sep-20 02:28N 09°28' W 079°50'  
Track history (hours):
 
Tides and Currents Weather Stations Pressure Air Temp Water Temp Dewpoint Dewpoint Depression Visibility Wind Speed Wind Dir Waves Ship Positions

CMA CGM La Boussole

Last reported at 2016-Sep-29 23:32 UTC. Time now 2016-Sep-30 11:48 UTC.
Position N 16°14' W 061°33'.

Length 210.1 m; beam 30.2 m; draft 11.5 m.

Type: Ship (hazmat cat A). MMSI: 636017045.

Date/timePositionNaut miles runAvg speedWind from/ knotsBaromVisibWave heightAir tempDewpointWater temp
2016-Sep-29 23:32N 16°14' W 061°33'0 0.0
2016-Sep-29 21:32N 16°14' W 061°33'0 0.0
2016-Sep-29 20:32N 16°14' W 061°33'0 0.0
2016-Sep-29 19:32N 16°14' W 061°33'0 0.0
2016-Sep-29 16:32N 16°14' W 061°33'0 0.0
2016-Sep-29 15:31N 16°14' W 061°33'0 0.0
2016-Sep-29 14:31N 16°14' W 061°33'0 0.0
2016-Sep-29 13:31N 16°14' W 061°33'6 1.2
2016-Sep-29 08:34N 16°08' W 061°30'8 7.4
2016-Sep-29 07:32N 16°08' W 061°22'  
2016-Sep-24 14:20N 09°46' W 079°00'3619.5
2016-Sep-24 12:30N 09°51' W 079°36'3920.2
2016-Sep-24 10:33N 09°53' W 080°16'  
2016-Sep-21 03:33N 09°38' W 080°06'1616.1
2016-Sep-21 02:34N 09°28' W 079°53'6 0.7
2016-Sep-20 17:32N 09°22' W 079°53'0 0.0
2016-Sep-20 14:31N 09°22' W 079°53'0 0.0
2016-Sep-20 13:31N 09°22' W 079°53'0 0.0
2016-Sep-20 10:31N 09°22' W 079°53'4 1.9
2016-Sep-20 08:33N 09°26' W 079°53'4 3.7
2016-Sep-20 07:26N 09°28' W 079°50'0 0.1
2016-Sep-20 06:32N 09°28' W 079°50'0 0.0
2016-Sep-20 02:28N 09°28' W 079°50'  

Dump ship's entire track history